Aviation Digital Data Service (ADDS)

Output produced by METARs form (2257 UTC 21 May 2022)
found at http://www.aviationweather.gov/metar/data/
 
TISX 212018Z 2120/2218 08012KT P6SM SCT030 
     TEMPO 2120/2122 BKN030 
     FM212200 05006KT P6SM FEW025 
     FM221400 09012KT P6SM FEW030 SCT050
       
TIST 212034Z 2121/2218 05010KT P6SM FEW028 SCT040 
     FM212200 06008KT P6SM FEW024 
     FM221400 10012KT P6SM FEW025 SCT050